sensor_id;sensor_type;location;lat;lon;timestamp;temperature;humidity
7942;HTU21D;4016;50.758;7.150;2023-06-05T00:02:17;13.12;98.48
7942;HTU21D;4016;50.758;7.150;2023-06-05T00:07:17;12.99;98.68
7942;HTU21D;4016;50.758;7.150;2023-06-05T00:12:17;12.87;98.43
7942;HTU21D;4016;50.758;7.150;2023-06-05T00:17:18;12.73;99.45
7942;HTU21D;4016;50.758;7.150;2023-06-05T00:22:19;12.63;100.24
7942;HTU21D;4016;50.758;7.150;2023-06-05T00:27:20;12.53;100.88
7942;HTU21D;4016;50.758;7.150;2023-06-05T00:32:21;12.40;102.18
7942;HTU21D;4016;50.758;7.150;2023-06-05T00:37:21;12.31;102.99
7942;HTU21D;4016;50.758;7.150;2023-06-05T00:42:21;12.20;103.25
7942;HTU21D;4016;50.758;7.150;2023-06-05T00:47:22;12.00;103.57
7942;HTU21D;4016;50.758;7.150;2023-06-05T00:52:22;11.86;104.02
7942;HTU21D;4016;50.758;7.150;2023-06-05T00:57:23;11.78;104.34
7942;HTU21D;4016;50.758;7.150;2023-06-05T01:02:24;11.73;104.83
7942;HTU21D;4016;50.758;7.150;2023-06-05T01:07:25;11.64;106.08
7942;HTU21D;4016;50.758;7.150;2023-06-05T01:12:41;11.59;106.72
7942;HTU21D;4016;50.758;7.150;2023-06-05T01:17:43;11.57;107.54
7942;HTU21D;4016;50.758;7.150;2023-06-05T01:22:50;11.40;107.90
7942;HTU21D;4016;50.758;7.150;2023-06-05T01:27:55;11.28;108.14
7942;HTU21D;4016;50.758;7.150;2023-06-05T01:33:01;11.12;109.01
7942;HTU21D;4016;50.758;7.150;2023-06-05T01:38:04;11.01;110.11
7942;HTU21D;4016;50.758;7.150;2023-06-05T01:43:07;10.97;110.55
7942;HTU21D;4016;50.758;7.150;2023-06-05T01:48:09;10.93;111.07
7942;HTU21D;4016;50.758;7.150;2023-06-05T01:53:12;10.89;113.02
7942;HTU21D;4016;50.758;7.150;2023-06-05T01:58:12;10.85;112.93
7942;HTU21D;4016;50.758;7.150;2023-06-05T02:03:14;10.78;113.45
7942;HTU21D;4016;50.758;7.150;2023-06-05T02:08:16;10.67;112.60
7942;HTU21D;4016;50.758;7.150;2023-06-05T02:13:19;10.57;113.54
7942;HTU21D;4016;50.758;7.150;2023-06-05T02:18:20;10.53;115.39
7942;HTU21D;4016;50.758;7.150;2023-06-05T02:23:21;10.39;115.69
7942;HTU21D;4016;50.758;7.150;2023-06-05T02:28:22;10.23;116.10
7942;HTU21D;4016;50.758;7.150;2023-06-05T02:33:22;10.15;116.44
7942;HTU21D;4016;50.758;7.150;2023-06-05T02:38:23;10.06;117.17
7942;HTU21D;4016;50.758;7.150;2023-06-05T02:43:23;9.97;117.44
7942;HTU21D;4016;50.758;7.150;2023-06-05T02:48:24;9.89;117.54
7942;HTU21D;4016;50.758;7.150;2023-06-05T02:53:24;9.86;118.06
7942;HTU21D;4016;50.758;7.150;2023-06-05T02:58:25;9.80;118.08
7942;HTU21D;4016;50.758;7.150;2023-06-05T03:03:25;9.71;117.83
7942;HTU21D;4016;50.758;7.150;2023-06-05T03:08:26;9.66;118.21
7942;HTU21D;4016;50.758;7.150;2023-06-05T03:13:27;9.61;118.19
7942;HTU21D;4016;50.758;7.150;2023-06-05T03:18:28;9.54;118.81
7942;HTU21D;4016;50.758;7.150;2023-06-05T03:23:29;9.49;118.99
7942;HTU21D;4016;50.758;7.150;2023-06-05T03:28:30;9.44;118.99
7942;HTU21D;4016;50.758;7.150;2023-06-05T03:33:33;9.34;118.99
7942;HTU21D;4016;50.758;7.150;2023-06-05T03:38:33;9.31;118.99
7942;HTU21D;4016;50.758;7.150;2023-06-05T03:43:34;9.27;118.99
7942;HTU21D;4016;50.758;7.150;2023-06-05T03:48:34;9.22;118.99
7942;HTU21D;4016;50.758;7.150;2023-06-05T03:53:34;9.21;118.99
7942;HTU21D;4016;50.758;7.150;2023-06-05T03:58:39;9.18;118.99
7942;HTU21D;4016;50.758;7.150;2023-06-05T04:03:41;9.22;118.99
7942;HTU21D;4016;50.758;7.150;2023-06-05T04:08:42;9.26;118.99
7942;HTU21D;4016;50.758;7.150;2023-06-05T04:13:42;9.27;118.99
7942;HTU21D;4016;50.758;7.150;2023-06-05T04:18:42;9.36;118.99
7942;HTU21D;4016;50.758;7.150;2023-06-05T04:23:43;9.42;118.99
7942;HTU21D;4016;50.758;7.150;2023-06-05T04:28:44;9.52;118.99
7942;HTU21D;4016;50.758;7.150;2023-06-05T04:33:45;9.70;118.99
7942;HTU21D;4016;50.758;7.150;2023-06-05T04:38:45;9.84;118.99
7942;HTU21D;4016;50.758;7.150;2023-06-05T04:43:47;10.00;118.99
7942;HTU21D;4016;50.758;7.150;2023-06-05T04:48:47;10.26;118.99
7942;HTU21D;4016;50.758;7.150;2023-06-05T04:53:48;10.57;118.99
7942;HTU21D;4016;50.758;7.150;2023-06-05T04:58:52;10.82;118.99
7942;HTU21D;4016;50.758;7.150;2023-06-05T05:03:53;11.03;118.78
7942;HTU21D;4016;50.758;7.150;2023-06-05T05:08:54;11.25;117.33
7942;HTU21D;4016;50.758;7.150;2023-06-05T05:13:55;11.38;116.67
7942;HTU21D;4016;50.758;7.150;2023-06-05T05:18:55;11.55;115.85
7942;HTU21D;4016;50.758;7.150;2023-06-05T05:23:55;11.76;115.76
7942;HTU21D;4016;50.758;7.150;2023-06-05T05:28:57;11.98;114.95
7942;HTU21D;4016;50.758;7.150;2023-06-05T05:33:57;12.15;114.07
7942;HTU21D;4016;50.758;7.150;2023-06-05T05:38:58;12.32;113.70
7942;HTU21D;4016;50.758;7.150;2023-06-05T05:43:59;12.52;111.96
7942;HTU21D;4016;50.758;7.150;2023-06-05T05:48:59;12.70;111.19
7942;HTU21D;4016;50.758;7.150;2023-06-05T05:53:59;12.96;108.28
7942;HTU21D;4016;50.758;7.150;2023-06-05T05:59:00;13.16;107.41
7942;HTU21D;4016;50.758;7.150;2023-06-05T06:04:01;13.35;104.79
7942;HTU21D;4016;50.758;7.150;2023-06-05T06:09:01;13.53;103.73
7942;HTU21D;4016;50.758;7.150;2023-06-05T06:14:04;13.80;100.41
7942;HTU21D;4016;50.758;7.150;2023-06-05T06:19:05;13.89;101.35
7942;HTU21D;4016;50.758;7.150;2023-06-05T06:24:06;14.22;98.52
7942;HTU21D;4016;50.758;7.150;2023-06-05T06:29:06;14.54;96.76
7942;HTU21D;4016;50.758;7.150;2023-06-05T06:34:07;14.81;94.75
7942;HTU21D;4016;50.758;7.150;2023-06-05T06:39:09;15.32;86.32
7942;HTU21D;4016;50.758;7.150;2023-06-05T06:44:10;15.41;85.62
7942;HTU21D;4016;50.758;7.150;2023-06-05T06:49:10;15.87;82.65
7942;HTU21D;4016;50.758;7.150;2023-06-05T06:54:11;16.42;80.26
7942;HTU21D;4016;50.758;7.150;2023-06-05T06:59:12;17.08;78.56
7942;HTU21D;4016;50.758;7.150;2023-06-05T07:04:16;17.80;73.04
7942;HTU21D;4016;50.758;7.150;2023-06-05T07:09:19;18.46;71.28
7942;HTU21D;4016;50.758;7.150;2023-06-05T07:14:21;18.89;65.33
7942;HTU21D;4016;50.758;7.150;2023-06-05T07:19:22;19.58;62.84
7942;HTU21D;4016;50.758;7.150;2023-06-05T07:24:25;19.83;60.93
7942;HTU21D;4016;50.758;7.150;2023-06-05T07:29:26;20.39;56.40
7942;HTU21D;4016;50.758;7.150;2023-06-05T07:34:27;20.68;52.32
7942;HTU21D;4016;50.758;7.150;2023-06-05T07:39:27;21.24;50.39
7942;HTU21D;4016;50.758;7.150;2023-06-05T07:44:28;21.64;51.37
7942;HTU21D;4016;50.758;7.150;2023-06-05T07:49:30;22.42;48.19
7942;HTU21D;4016;50.758;7.150;2023-06-05T07:54:32;22.53;47.48
7942;HTU21D;4016;50.758;7.150;2023-06-05T07:59:32;22.75;46.64
7942;HTU21D;4016;50.758;7.150;2023-06-05T08:04:33;23.08;43.98
7942;HTU21D;4016;50.758;7.150;2023-06-05T08:09:33;23.39;42.04
7942;HTU21D;4016;50.758;7.150;2023-06-05T08:14:36;23.87;42.39
7942;HTU21D;4016;50.758;7.150;2023-06-05T08:19:37;23.80;39.52
7942;HTU21D;4016;50.758;7.150;2023-06-05T08:24:38;23.32;44.09
7942;HTU21D;4016;50.758;7.150;2023-06-05T08:29:38;23.74;42.16
7942;HTU21D;4016;50.758;7.150;2023-06-05T08:34:38;23.74;42.18
7942;HTU21D;4016;50.758;7.150;2023-06-05T08:39:39;23.66;41.98
7942;HTU21D;4016;50.758;7.150;2023-06-05T08:44:40;24.32;39.36
7942;HTU21D;4016;50.758;7.150;2023-06-05T08:49:41;24.56;40.35
7942;HTU21D;4016;50.758;7.150;2023-06-05T08:54:42;24.63;39.37
7942;HTU21D;4016;50.758;7.150;2023-06-05T08:59:43;24.93;38.30
7942;HTU21D;4016;50.758;7.150;2023-06-05T09:04:44;25.17;38.40
7942;HTU21D;4016;50.758;7.150;2023-06-05T09:09:45;25.22;38.49
7942;HTU21D;4016;50.758;7.150;2023-06-05T09:14:45;25.32;38.59
7942;HTU21D;4016;50.758;7.150;2023-06-05T09:19:46;25.96;37.50
7942;HTU21D;4016;50.758;7.150;2023-06-05T09:24:56;26.48;35.44
7942;HTU21D;4016;50.758;7.150;2023-06-05T09:30:03;26.20;36.11
7942;HTU21D;4016;50.758;7.150;2023-06-05T09:35:04;26.30;35.02
7942;HTU21D;4016;50.758;7.150;2023-06-05T09:40:07;26.50;34.53
7942;HTU21D;4016;50.758;7.150;2023-06-05T09:45:09;26.51;34.72
7942;HTU21D;4016;50.758;7.150;2023-06-05T09:50:21;26.43;34.54
7942;HTU21D;4016;50.758;7.150;2023-06-05T09:55:23;26.22;35.18
7942;HTU21D;4016;50.758;7.150;2023-06-05T10:00:25;26.49;34.36
7942;HTU21D;4016;50.758;7.150;2023-06-05T10:05:27;26.71;34.34
7942;HTU21D;4016;50.758;7.150;2023-06-05T10:10:29;26.65;34.37
7942;HTU21D;4016;50.758;7.150;2023-06-05T10:15:31;27.01;33.44
7942;HTU21D;4016;50.758;7.150;2023-06-05T10:20:34;26.91;32.19
7942;HTU21D;4016;50.758;7.150;2023-06-05T10:25:36;27.23;33.39
7942;HTU21D;4016;50.758;7.150;2023-06-05T10:36:14;27.91;30.38
7942;HTU21D;4016;50.758;7.150;2023-06-05T10:41:17;27.60;31.82
7942;HTU21D;4016;50.758;7.150;2023-06-05T10:46:28;28.08;30.32
7942;HTU21D;4016;50.758;7.150;2023-06-05T11:07:14;28.75;24.62
7942;HTU21D;4016;50.758;7.150;2023-06-05T11:12:15;28.41;26.75
7942;HTU21D;4016;50.758;7.150;2023-06-05T11:17:32;29.17;24.58
7942;HTU21D;4016;50.758;7.150;2023-06-05T11:22:32;28.62;26.08
7942;HTU21D;4016;50.758;7.150;2023-06-05T11:32:47;29.30;24.59
7942;HTU21D;4016;50.758;7.150;2023-06-05T11:37:47;29.77;25.56
7942;HTU21D;4016;50.758;7.150;2023-06-05T11:42:48;29.76;22.74
7942;HTU21D;4016;50.758;7.150;2023-06-05T11:47:48;30.26;22.09
7942;HTU21D;4016;50.758;7.150;2023-06-05T11:52:49;30.75;20.53
7942;HTU21D;4016;50.758;7.150;2023-06-05T11:57:49;30.20;22.03
7942;HTU21D;4016;50.758;7.150;2023-06-05T12:02:49;30.41;20.72
7942;HTU21D;4016;50.758;7.150;2023-06-05T12:07:50;30.83;23.61
7942;HTU21D;4016;50.758;7.150;2023-06-05T12:12:51;30.97;20.99
7942;HTU21D;4016;50.758;7.150;2023-06-05T12:17:56;31.24;21.04
7942;HTU21D;4016;50.758;7.150;2023-06-05T12:22:56;30.83;21.74
7942;HTU21D;4016;50.758;7.150;2023-06-05T12:27:57;30.55;22.00
7942;HTU21D;4016;50.758;7.150;2023-06-05T12:33:03;30.56;21.66
7942;HTU21D;4016;50.758;7.150;2023-06-05T12:38:05;30.21;21.09
7942;HTU21D;4016;50.758;7.150;2023-06-05T12:43:16;30.18;21.26
7942;HTU21D;4016;50.758;7.150;2023-06-05T12:48:17;30.42;19.27
7942;HTU21D;4016;50.758;7.150;2023-06-05T12:53:19;30.12;19.28
7942;HTU21D;4016;50.758;7.150;2023-06-05T12:58:20;30.26;21.95
7942;HTU21D;4016;50.758;7.150;2023-06-05T13:03:22;30.83;20.92
7942;HTU21D;4016;50.758;7.150;2023-06-05T13:08:23;30.69;21.92
7942;HTU21D;4016;50.758;7.150;2023-06-05T13:13:25;30.61;22.50
7942;HTU21D;4016;50.758;7.150;2023-06-05T13:18:27;31.01;19.57
7942;HTU21D;4016;50.758;7.150;2023-06-05T13:23:27;30.64;20.79
7942;HTU21D;4016;50.758;7.150;2023-06-05T13:28:28;30.78;22.05
7942;HTU21D;4016;50.758;7.150;2023-06-05T13:33:29;31.48;21.73
7942;HTU21D;4016;50.758;7.150;2023-06-05T13:38:30;31.98;20.20
7942;HTU21D;4016;50.758;7.150;2023-06-05T13:43:31;31.51;20.22
7942;HTU21D;4016;50.758;7.150;2023-06-05T13:48:32;31.48;21.80
7942;HTU21D;4016;50.758;7.150;2023-06-05T13:53:34;31.90;20.38
7942;HTU21D;4016;50.758;7.150;2023-06-05T13:58:35;32.04;20.69
7942;HTU21D;4016;50.758;7.150;2023-06-05T14:03:35;31.95;21.79
7942;HTU21D;4016;50.758;7.150;2023-06-05T14:08:35;32.07;20.92
7942;HTU21D;4016;50.758;7.150;2023-06-05T14:13:36;32.11;20.12
7942;HTU21D;4016;50.758;7.150;2023-06-05T14:18:37;32.23;21.05
7942;HTU21D;4016;50.758;7.150;2023-06-05T14:23:37;32.28;18.50
7942;HTU21D;4016;50.758;7.150;2023-06-05T14:28:38;32.66;17.72
7942;HTU21D;4016;50.758;7.150;2023-06-05T14:33:38;32.18;17.80
7942;HTU21D;4016;50.758;7.150;2023-06-05T14:38:39;32.14;18.41
7942;HTU21D;4016;50.758;7.150;2023-06-05T14:43:40;31.88;18.22
7942;HTU21D;4016;50.758;7.150;2023-06-05T14:48:40;31.20;17.31
7942;HTU21D;4016;50.758;7.150;2023-06-05T14:53:42;31.14;17.50
7942;HTU21D;4016;50.758;7.150;2023-06-05T14:58:42;31.31;17.51
7942;HTU21D;4016;50.758;7.150;2023-06-05T15:03:42;31.35;15.72
7942;HTU21D;4016;50.758;7.150;2023-06-05T15:08:43;31.28;17.34
7942;HTU21D;4016;50.758;7.150;2023-06-05T15:13:43;30.94;16.51
7942;HTU21D;4016;50.758;7.150;2023-06-05T15:18:45;31.41;17.69
7942;HTU21D;4016;50.758;7.150;2023-06-05T15:23:46;32.17;14.89
7942;HTU21D;4016;50.758;7.150;2023-06-05T15:28:46;32.33;17.41
7942;HTU21D;4016;50.758;7.150;2023-06-05T15:33:47;32.57;15.66
7942;HTU21D;4016;50.758;7.150;2023-06-05T15:38:47;32.60;15.27
7942;HTU21D;4016;50.758;7.150;2023-06-05T15:43:48;31.85;17.18
7942;HTU21D;4016;50.758;7.150;2023-06-05T15:48:48;31.31;19.64
7942;HTU21D;4016;50.758;7.150;2023-06-05T15:53:49;30.24;21.32
7942;HTU21D;4016;50.758;7.150;2023-06-05T15:58:50;30.61;21.26
7942;HTU21D;4016;50.758;7.150;2023-06-05T16:03:50;30.92;21.02
7942;HTU21D;4016;50.758;7.150;2023-06-05T16:08:51;31.14;19.86
7942;HTU21D;4016;50.758;7.150;2023-06-05T16:13:51;31.38;20.73
7942;HTU21D;4016;50.758;7.150;2023-06-05T16:18:51;31.53;19.48
7942;HTU21D;4016;50.758;7.150;2023-06-05T16:23:52;31.43;19.43
7942;HTU21D;4016;50.758;7.150;2023-06-05T16:28:52;31.12;20.73
7942;HTU21D;4016;50.758;7.150;2023-06-05T16:33:53;31.22;21.48
7942;HTU21D;4016;50.758;7.150;2023-06-05T16:38:53;30.90;23.17
7942;HTU21D;4016;50.758;7.150;2023-06-05T16:43:56;30.91;22.66
7942;HTU21D;4016;50.758;7.150;2023-06-05T16:48:56;30.71;22.24
7942;HTU21D;4016;50.758;7.150;2023-06-05T16:53:57;29.70;23.50
7942;HTU21D;4016;50.758;7.150;2023-06-05T16:58:58;29.52;24.61
7942;HTU21D;4016;50.758;7.150;2023-06-05T17:03:58;29.74;24.23
7942;HTU21D;4016;50.758;7.150;2023-06-05T17:08:59;29.73;23.62
7942;HTU21D;4016;50.758;7.150;2023-06-05T17:14:00;29.52;24.76
7942;HTU21D;4016;50.758;7.150;2023-06-05T17:19:01;29.39;23.79
7942;HTU21D;4016;50.758;7.150;2023-06-05T17:24:02;29.44;24.35
7942;HTU21D;4016;50.758;7.150;2023-06-05T17:29:02;29.42;23.81
7942;HTU21D;4016;50.758;7.150;2023-06-05T17:34:03;28.94;24.46
7942;HTU21D;4016;50.758;7.150;2023-06-05T17:39:03;28.77;24.51
7942;HTU21D;4016;50.758;7.150;2023-06-05T17:44:04;28.34;24.91
7942;HTU21D;4016;50.758;7.150;2023-06-05T17:49:04;28.62;25.10
7942;HTU21D;4016;50.758;7.150;2023-06-05T17:54:04;28.50;24.88
7942;HTU21D;4016;50.758;7.150;2023-06-05T17:59:05;28.33;25.92
7942;HTU21D;4016;50.758;7.150;2023-06-05T18:04:06;27.59;26.32
7942;HTU21D;4016;50.758;7.150;2023-06-05T18:09:07;26.87;27.59
7942;HTU21D;4016;50.758;7.150;2023-06-05T18:14:07;26.65;28.38
7942;HTU21D;4016;50.758;7.150;2023-06-05T18:19:07;26.36;28.76
7942;HTU21D;4016;50.758;7.150;2023-06-05T18:24:08;26.77;28.84
7942;HTU21D;4016;50.758;7.150;2023-06-05T18:29:08;27.17;28.45
7942;HTU21D;4016;50.758;7.150;2023-06-05T18:34:09;27.24;28.03
7942;HTU21D;4016;50.758;7.150;2023-06-05T18:39:10;27.55;27.44
7942;HTU21D;4016;50.758;7.150;2023-06-05T18:44:11;27.38;27.41
7942;HTU21D;4016;50.758;7.150;2023-06-05T18:49:11;27.02;27.45
7942;HTU21D;4016;50.758;7.150;2023-06-05T18:54:12;26.54;28.73
7942;HTU21D;4016;50.758;7.150;2023-06-05T18:59:12;26.03;29.56
7942;HTU21D;4016;50.758;7.150;2023-06-05T19:04:13;25.57;30.71
7942;HTU21D;4016;50.758;7.150;2023-06-05T19:09:13;24.90;32.59
7942;HTU21D;4016;50.758;7.150;2023-06-05T19:14:13;24.61;33.15
7942;HTU21D;4016;50.758;7.150;2023-06-05T19:19:15;24.39;33.92
7942;HTU21D;4016;50.758;7.150;2023-06-05T19:24:16;24.12;34.25
7942;HTU21D;4016;50.758;7.150;2023-06-05T19:29:16;23.70;35.73
7942;HTU21D;4016;50.758;7.150;2023-06-05T19:34:18;23.29;37.44
7942;HTU21D;4016;50.758;7.150;2023-06-05T19:39:18;23.00;39.88
7942;HTU21D;4016;50.758;7.150;2023-06-05T19:44:18;22.68;40.73
7942;HTU21D;4016;50.758;7.150;2023-06-05T19:49:19;22.43;42.20
7942;HTU21D;4016;50.758;7.150;2023-06-05T19:54:19;22.11;43.35
7942;HTU21D;4016;50.758;7.150;2023-06-05T19:59:20;21.89;43.70
7942;HTU21D;4016;50.758;7.150;2023-06-05T20:04:20;21.65;45.01
7942;HTU21D;4016;50.758;7.150;2023-06-05T20:09:20;21.36;45.03
7942;HTU21D;4016;50.758;7.150;2023-06-05T20:14:21;21.18;44.56
7942;HTU21D;4016;50.758;7.150;2023-06-05T20:19:21;20.89;46.06
7942;HTU21D;4016;50.758;7.150;2023-06-05T20:24:22;20.69;47.01
7942;HTU21D;4016;50.758;7.150;2023-06-05T20:29:22;20.48;47.41
7942;HTU21D;4016;50.758;7.150;2023-06-05T20:34:22;20.49;46.72
7942;HTU21D;4016;50.758;7.150;2023-06-05T20:39:23;20.17;48.74
7942;HTU21D;4016;50.758;7.150;2023-06-05T20:44:24;19.91;50.94
7942;HTU21D;4016;50.758;7.150;2023-06-05T20:49:25;19.67;53.81
7942;HTU21D;4016;50.758;7.150;2023-06-05T20:54:26;19.39;55.51
7942;HTU21D;4016;50.758;7.150;2023-06-05T20:59:26;19.15;56.10
7942;HTU21D;4016;50.758;7.150;2023-06-05T21:04:27;18.93;57.71
7942;HTU21D;4016;50.758;7.150;2023-06-05T21:09:27;18.79;57.25
7942;HTU21D;4016;50.758;7.150;2023-06-05T21:14:27;18.56;58.53
7942;HTU21D;4016;50.758;7.150;2023-06-05T21:19:28;18.34;58.70
7942;HTU21D;4016;50.758;7.150;2023-06-05T21:24:28;18.26;57.76
7942;HTU21D;4016;50.758;7.150;2023-06-05T21:29:28;18.09;58.74
7942;HTU21D;4016;50.758;7.150;2023-06-05T21:34:29;17.85;60.38
7942;HTU21D;4016;50.758;7.150;2023-06-05T21:39:30;17.63;62.05
7942;HTU21D;4016;50.758;7.150;2023-06-05T21:44:30;17.43;63.43
7942;HTU21D;4016;50.758;7.150;2023-06-05T21:49:30;17.25;66.53
7942;HTU21D;4016;50.758;7.150;2023-06-05T21:54:32;17.11;68.20
7942;HTU21D;4016;50.758;7.150;2023-06-05T21:59:34;17.00;71.98
7942;HTU21D;4016;50.758;7.150;2023-06-05T22:04:34;16.78;76.76
7942;HTU21D;4016;50.758;7.150;2023-06-05T22:09:35;16.58;77.80
7942;HTU21D;4016;50.758;7.150;2023-06-05T22:14:39;16.35;78.28
7942;HTU21D;4016;50.758;7.150;2023-06-05T22:19:40;16.21;80.30
7942;HTU21D;4016;50.758;7.150;2023-06-05T22:24:42;16.11;83.84
7942;HTU21D;4016;50.758;7.150;2023-06-05T22:29:42;15.97;83.80
7942;HTU21D;4016;50.758;7.150;2023-06-05T22:34:42;15.86;85.32
7942;HTU21D;4016;50.758;7.150;2023-06-05T22:39:44;15.69;90.14
7942;HTU21D;4016;50.758;7.150;2023-06-05T22:44:44;15.59;94.43
7942;HTU21D;4016;50.758;7.150;2023-06-05T22:49:45;15.43;94.60
7942;HTU21D;4016;50.758;7.150;2023-06-05T22:54:45;15.29;96.41
7942;HTU21D;4016;50.758;7.150;2023-06-05T22:59:46;15.14;96.65
7942;HTU21D;4016;50.758;7.150;2023-06-05T23:04:49;15.04;98.21
7942;HTU21D;4016;50.758;7.150;2023-06-05T23:09:49;14.89;99.46
7942;HTU21D;4016;50.758;7.150;2023-06-05T23:14:49;14.73;100.35
7942;HTU21D;4016;50.758;7.150;2023-06-05T23:19:51;14.55;102.12
7942;HTU21D;4016;50.758;7.150;2023-06-05T23:24:51;14.47;101.43
7942;HTU21D;4016;50.758;7.150;2023-06-05T23:29:52;14.37;102.18
7942;HTU21D;4016;50.758;7.150;2023-06-05T23:34:52;14.29;102.50
7942;HTU21D;4016;50.758;7.150;2023-06-05T23:39:52;14.14;103.36
7942;HTU21D;4016;50.758;7.150;2023-06-05T23:44:53;14.01;103.85
7942;HTU21D;4016;50.758;7.150;2023-06-05T23:49:53;13.91;103.81
7942;HTU21D;4016;50.758;7.150;2023-06-05T23:54:53;13.82;104.39
7942;HTU21D;4016;50.758;7.150;2023-06-05T23:59:56;13.75;105.31
